createdAt,value
2022-12-06T00:01:32.397Z,10.30
2022-12-06T00:04:04.075Z,12.33
2022-12-06T00:06:33.660Z,11.93
2022-12-06T00:09:00.869Z,11.43
2022-12-06T00:11:31.223Z,11.07
2022-12-06T00:14:01.694Z,9.90
2022-12-06T00:16:29.754Z,12.47
2022-12-06T00:18:57.805Z,11.53
2022-12-06T00:21:29.082Z,9.63
2022-12-06T00:24:04.212Z,10.40
2022-12-06T00:26:35.718Z,9.93
2022-12-06T00:29:03.299Z,10.13
2022-12-06T00:31:32.787Z,9.53
2022-12-06T00:33:59.769Z,9.90
2022-12-06T00:36:30.826Z,9.20
2022-12-06T00:39:04.980Z,9.67
2022-12-06T00:41:31.807Z,9.70
2022-12-06T00:43:58.582Z,11.07
2022-12-06T00:46:29.648Z,11.37
2022-12-06T00:48:58.701Z,8.43
2022-12-06T00:51:28.325Z,8.87
2022-12-06T00:53:55.529Z,8.80
2022-12-06T00:56:23.284Z,9.53
2022-12-06T00:58:50.561Z,10.23
2022-12-06T01:01:21.634Z,9.73
2022-12-06T01:03:52.481Z,7.90
2022-12-06T01:06:25.915Z,10.80
2022-12-06T01:08:54.785Z,9.90
2022-12-06T01:11:23.763Z,9.57
2022-12-06T01:13:52.660Z,12.03
2022-12-06T01:16:27.325Z,11.00
2022-12-06T01:18:58.338Z,8.70
2022-12-06T01:21:26.577Z,8.37
2022-12-06T01:23:56.465Z,12.33
2022-12-06T01:26:35.180Z,11.17
2022-12-06T01:29:03.023Z,9.87
2022-12-06T01:31:37.136Z,10.43
2022-12-06T01:34:04.370Z,8.70
2022-12-06T01:36:31.326Z,8.20
2022-12-06T01:39:00.355Z,10.13
2022-12-06T01:41:28.381Z,11.33
2022-12-06T01:43:56.486Z,10.33
2022-12-06T01:46:33.544Z,8.80
2022-12-06T01:49:12.387Z,8.77
2022-12-06T01:51:51.378Z,8.83
2022-12-06T01:54:21.686Z,9.07
2022-12-06T01:56:52.219Z,9.40
2022-12-06T01:59:21.105Z,10.33
2022-12-06T02:01:48.675Z,8.43
2022-12-06T02:04:17.701Z,9.23
2022-12-06T02:06:46.482Z,9.63
2022-12-06T02:09:16.538Z,9.30
2022-12-06T02:11:47.389Z,8.80
2022-12-06T02:14:20.681Z,8.10
2022-12-06T02:17:14.200Z,10.77
2022-12-06T02:20:07.858Z,7.77
2022-12-06T02:23:05.645Z,11.50
2022-12-06T02:26:17.091Z,8.40
2022-12-06T02:29:13.736Z,9.23
2022-12-06T02:31:56.408Z,9.47
2022-12-06T02:34:37.376Z,10.10
2022-12-06T02:37:12.996Z,10.20
2022-12-06T02:39:50.812Z,10.67
2022-12-06T02:42:36.692Z,11.13
2022-12-06T02:45:14.521Z,8.33
2022-12-06T02:47:43.150Z,11.30
2022-12-06T02:50:17.681Z,9.23
2022-12-06T02:52:51.064Z,13.67
2022-12-06T02:55:19.386Z,12.50
2022-12-06T02:57:50.715Z,11.10
2022-12-06T03:00:34.730Z,10.83
2022-12-06T03:03:36.087Z,12.37
2022-12-06T03:06:02.802Z,12.03
2022-12-06T03:08:42.417Z,11.70
2022-12-06T03:11:10.939Z,12.10
2022-12-06T03:14:08.000Z,12.00
2022-12-06T03:16:53.862Z,10.57
2022-12-06T03:19:31.907Z,15.30
2022-12-06T03:22:11.330Z,10.50
2022-12-06T03:24:42.072Z,13.43
2022-12-06T03:27:15.732Z,11.20
2022-12-06T03:29:51.274Z,11.77
2022-12-06T03:32:24.991Z,12.97
2022-12-06T03:34:55.741Z,14.30
2022-12-06T03:37:27.127Z,14.27
2022-12-06T03:40:13.662Z,10.67
2022-12-06T03:42:40.453Z,12.00
2022-12-06T03:45:10.562Z,13.80
2022-12-06T03:47:59.357Z,13.13
2022-12-06T03:51:01.347Z,15.53
2022-12-06T03:53:28.154Z,13.13
2022-12-06T03:55:54.918Z,12.27
2022-12-06T03:58:21.662Z,16.27
2022-12-06T04:00:48.582Z,14.20
2022-12-06T04:03:15.535Z,15.73
2022-12-06T04:05:42.377Z,16.57
2022-12-06T04:08:09.427Z,16.47
2022-12-06T04:10:36.199Z,15.43
2022-12-06T04:13:03.314Z,14.83
2022-12-06T04:15:35.151Z,16.57
2022-12-06T04:18:11.046Z,14.83
2022-12-06T04:21:04.847Z,17.57
2022-12-06T04:23:36.299Z,15.53
2022-12-06T04:26:05.801Z,15.83
2022-12-06T04:28:52.772Z,16.70
2022-12-06T04:31:38.341Z,15.03
2022-12-06T04:34:24.479Z,15.80
2022-12-06T04:37:10.164Z,13.43
2022-12-06T04:39:37.079Z,15.83
2022-12-06T04:42:22.933Z,14.37
2022-12-06T04:44:49.688Z,13.80
2022-12-06T04:47:17.187Z,15.23
2022-12-06T04:49:43.969Z,16.20
2022-12-06T04:52:10.976Z,13.47
2022-12-06T04:54:38.555Z,15.00
2022-12-06T04:57:11.139Z,17.77
2022-12-06T04:59:40.728Z,16.57
2022-12-06T05:02:13.018Z,14.37
2022-12-06T05:04:39.980Z,15.77
2022-12-06T05:07:09.759Z,15.30
2022-12-06T05:09:36.663Z,15.90
2022-12-06T05:12:03.933Z,15.37
2022-12-06T05:14:30.809Z,12.40
2022-12-06T05:16:58.869Z,14.70
2022-12-06T05:19:25.864Z,13.33
2022-12-06T05:21:53.214Z,15.57
2022-12-06T05:24:20.150Z,18.53
2022-12-06T05:26:46.900Z,17.63
2022-12-06T05:29:13.719Z,18.63
2022-12-06T05:31:40.590Z,16.27
2022-12-06T05:34:07.449Z,14.67
2022-12-06T05:36:34.217Z,15.27
2022-12-06T05:39:01.035Z,16.93
2022-12-06T05:41:27.887Z,15.00
2022-12-06T05:46:45.315Z,12.67
2022-12-06T05:49:12.072Z,12.93
2022-12-06T05:51:39.183Z,11.57
2022-12-06T05:54:06.665Z,17.43
2022-12-06T05:56:33.809Z,15.37
2022-12-06T05:59:00.566Z,12.20
2022-12-06T06:01:27.347Z,14.53
2022-12-06T06:03:54.131Z,14.83
2022-12-06T06:06:21.788Z,14.63
2022-12-06T06:08:48.643Z,13.73
2022-12-06T06:11:15.590Z,10.97
2022-12-06T06:13:42.356Z,15.43
2022-12-06T06:16:09.273Z,12.83
2022-12-06T06:18:36.251Z,15.03
2022-12-06T06:21:04.005Z,15.63
2022-12-06T06:23:31.281Z,19.30
2022-12-06T06:25:58.057Z,14.80
2022-12-06T06:28:24.968Z,16.23
2022-12-06T06:30:51.705Z,12.70
2022-12-06T06:33:19.064Z,16.30
2022-12-06T06:35:45.831Z,11.80
2022-12-06T06:38:12.832Z,11.90
2022-12-06T06:40:39.746Z,11.60
2022-12-06T06:43:18.713Z,11.77
2022-12-06T06:45:58.141Z,11.93
2022-12-06T06:48:27.858Z,11.63
2022-12-06T06:50:57.540Z,13.30
2022-12-06T06:53:27.675Z,13.50
2022-12-06T06:55:55.059Z,12.57
2022-12-06T06:58:21.817Z,13.33
2022-12-06T07:00:55.040Z,15.97
2022-12-06T07:03:23.571Z,14.93
2022-12-06T07:05:57.115Z,15.13
2022-12-06T07:08:25.714Z,15.37
2022-12-06T07:10:52.477Z,14.33
2022-12-06T07:13:20.938Z,16.87
2022-12-06T07:15:48.724Z,13.07
2022-12-06T07:18:19.396Z,21.33
2022-12-06T07:20:47.463Z,16.47
2022-12-06T07:23:15.752Z,15.47
2022-12-06T07:25:42.866Z,22.33
2022-12-06T07:28:09.678Z,13.63
2022-12-06T07:30:36.537Z,38.17
2022-12-06T07:33:03.416Z,15.57
2022-12-06T07:35:55.703Z,12.57
2022-12-06T07:38:17.029Z,20.03
2022-12-06T07:43:48.878Z,15.60
2022-12-06T07:46:15.805Z,17.30
2022-12-06T07:48:42.813Z,20.37
2022-12-06T07:51:09.609Z,22.27
2022-12-06T07:53:36.466Z,16.50
2022-12-06T07:56:08.126Z,12.10
2022-12-06T07:58:34.895Z,21.50
2022-12-06T08:01:04.433Z,15.93
2022-12-06T08:03:31.471Z,15.73
2022-12-06T08:05:58.637Z,14.47
2022-12-06T08:08:28.728Z,13.90
2022-12-06T08:10:59.167Z,17.17
2022-12-06T08:13:26.147Z,17.67
2022-12-06T08:15:52.972Z,15.40
2022-12-06T08:18:19.808Z,12.60
2022-12-06T08:20:46.572Z,14.33
2022-12-06T08:23:13.488Z,15.90
2022-12-06T08:25:40.279Z,12.87
2022-12-06T08:28:07.011Z,13.13
2022-12-06T08:30:33.991Z,18.03
2022-12-06T08:33:00.903Z,17.27
2022-12-06T08:35:27.664Z,18.87
2022-12-06T08:37:54.439Z,18.33
2022-12-06T08:40:21.209Z,17.83
2022-12-06T08:42:47.926Z,18.50
2022-12-06T08:45:14.776Z,18.57
2022-12-06T08:47:41.495Z,21.77
2022-12-06T08:50:08.620Z,20.27
2022-12-06T08:52:35.382Z,22.90
2022-12-06T08:55:02.148Z,18.20
2022-12-06T08:57:28.977Z,19.20
2022-12-06T08:59:56.097Z,20.27
2022-12-06T09:02:22.894Z,19.33
2022-12-06T09:04:52.988Z,17.73
2022-12-06T09:07:19.827Z,14.80
2022-12-06T09:09:46.648Z,22.63
2022-12-06T09:12:15.265Z,23.40
2022-12-06T09:14:42.121Z,25.73
2022-12-06T09:17:08.918Z,32.47
2022-12-06T09:19:35.847Z,21.40
2022-12-06T09:22:02.790Z,24.87
2022-12-06T09:24:29.609Z,25.30
2022-12-06T09:26:56.573Z,23.73
2022-12-06T09:29:24.057Z,23.10
2022-12-06T09:31:50.988Z,20.27
2022-12-06T09:34:17.908Z,18.13
2022-12-06T09:37:14.004Z,18.80
2022-12-06T09:39:53.201Z,22.47
2022-12-06T09:42:52.734Z,22.37
2022-12-06T09:45:47.850Z,21.47
2022-12-06T09:48:26.657Z,23.43
2022-12-06T09:51:22.499Z,20.87
2022-12-06T09:54:33.801Z,22.80
2022-12-06T09:57:15.515Z,23.73
2022-12-06T10:00:11.667Z,21.07
2022-12-06T10:03:17.002Z,23.97
2022-12-06T10:06:00.659Z,25.77
2022-12-06T10:08:51.648Z,32.07
2022-12-06T10:11:44.019Z,22.63
2022-12-06T10:14:56.153Z,20.03
2022-12-06T10:17:42.193Z,16.97
2022-12-06T10:20:41.495Z,17.80
2022-12-06T10:23:38.472Z,17.13
2022-12-06T10:26:21.462Z,21.97
2022-12-06T10:29:05.139Z,20.43
2022-12-06T10:32:00.283Z,24.30
2022-12-06T10:34:56.884Z,17.27
2022-12-06T10:37:29.466Z,15.23
2022-12-06T10:40:14.263Z,18.13
2022-12-06T10:42:49.860Z,19.47
2022-12-06T10:46:18.204Z,20.37
2022-12-06T10:48:50.814Z,22.73
2022-12-06T10:51:38.001Z,18.40
2022-12-06T10:54:33.381Z,23.53
2022-12-06T10:57:07.193Z,17.43
2022-12-06T10:59:48.841Z,17.57
2022-12-06T11:02:48.395Z,22.17
2022-12-06T11:05:43.140Z,20.23
2022-12-06T11:08:23.804Z,15.40
2022-12-06T11:10:52.085Z,16.90
2022-12-06T11:13:30.928Z,15.17
2022-12-06T11:16:32.783Z,15.17
2022-12-06T11:19:20.469Z,14.57
2022-12-06T11:21:58.939Z,15.57
2022-12-06T11:24:47.899Z,14.10
2022-12-06T11:27:24.144Z,13.93
2022-12-06T11:29:53.208Z,18.70
2022-12-06T11:32:20.177Z,18.30
2022-12-06T11:34:55.972Z,17.33
2022-12-06T11:37:27.190Z,15.77
2022-12-06T11:40:27.112Z,18.17
2022-12-06T11:42:55.051Z,25.53
2022-12-06T11:45:30.484Z,18.27
2022-12-06T11:47:59.530Z,17.70
2022-12-06T11:50:32.319Z,18.27
2022-12-06T11:53:12.633Z,16.77
2022-12-06T11:55:48.132Z,26.87
2022-12-06T11:58:46.936Z,15.83
2022-12-06T12:01:14.596Z,18.67
2022-12-06T12:03:44.687Z,17.33
2022-12-06T12:06:26.951Z,21.33
2022-12-06T12:09:19.302Z,16.07
2022-12-06T12:12:00.790Z,20.00
2022-12-06T12:14:38.458Z,16.97
2022-12-06T12:17:22.891Z,16.20
2022-12-06T12:22:45.046Z,18.97
2022-12-06T12:25:22.440Z,24.80
2022-12-06T12:27:53.021Z,16.30
2022-12-06T12:30:36.557Z,18.60
2022-12-06T12:33:06.464Z,17.07
2022-12-06T12:35:42.820Z,20.47
2022-12-06T12:38:26.390Z,20.93
2022-12-06T12:41:12.518Z,22.53
2022-12-06T12:43:39.981Z,20.10
2022-12-06T12:46:20.993Z,23.63
2022-12-06T12:48:50.937Z,24.03
2022-12-06T12:51:37.925Z,33.87
2022-12-06T12:54:29.474Z,33.67
2022-12-06T12:56:58.948Z,28.13
2022-12-06T12:59:32.427Z,25.27
2022-12-06T13:02:28.324Z,26.33
2022-12-06T13:05:35.240Z,22.97
2022-12-06T13:08:26.374Z,51.20
2022-12-06T13:10:59.528Z,33.80
2022-12-06T13:13:49.648Z,29.67
2022-12-06T13:16:29.070Z,27.43
2022-12-06T13:18:58.416Z,20.43
2022-12-06T13:21:40.376Z,21.33
2022-12-06T13:24:10.128Z,21.40
2022-12-06T13:26:49.548Z,19.40
2022-12-06T13:29:40.928Z,16.10
2022-12-06T13:32:22.295Z,15.93
2022-12-06T13:35:05.062Z,15.17
2022-12-06T13:37:51.117Z,14.33
2022-12-06T13:40:32.976Z,17.57
2022-12-06T13:43:22.239Z,17.03
2022-12-06T13:46:26.338Z,14.80
2022-12-06T13:49:04.204Z,12.10
2022-12-06T13:51:30.931Z,16.63
2022-12-06T13:54:04.235Z,14.17
2022-12-06T13:56:39.239Z,16.90
2022-12-06T13:59:11.887Z,15.70
2022-12-06T14:01:52.613Z,19.93
2022-12-06T14:07:00.872Z,13.10
2022-12-06T14:09:43.918Z,16.83
2022-12-06T14:12:22.008Z,16.67
2022-12-06T14:15:01.223Z,21.50
2022-12-06T14:18:04.341Z,20.83
2022-12-06T14:20:33.655Z,19.97
2022-12-06T14:23:00.542Z,38.90
2022-12-06T14:25:30.357Z,20.73
2022-12-06T14:28:10.562Z,18.53
2022-12-06T14:30:37.460Z,21.20
2022-12-06T14:33:22.932Z,20.50
2022-12-06T14:35:54.688Z,20.50
2022-12-06T14:38:29.648Z,25.37
2022-12-06T14:41:15.795Z,23.33
2022-12-06T14:43:47.526Z,23.10
2022-12-06T14:46:17.613Z,25.13
2022-12-06T14:49:03.673Z,20.77
2022-12-06T14:51:42.674Z,21.40
2022-12-06T14:54:42.846Z,23.67
2022-12-06T14:57:31.580Z,25.90
2022-12-06T15:00:27.049Z,28.10
2022-12-06T15:03:21.494Z,24.83
2022-12-06T15:05:57.181Z,25.90
2022-12-06T15:08:33.422Z,23.60
2022-12-06T15:11:41.080Z,21.03
2022-12-06T15:14:29.227Z,23.50
2022-12-06T15:17:18.110Z,25.80
2022-12-06T15:19:52.764Z,20.60
2022-12-06T15:22:27.970Z,21.33
2022-12-06T15:24:57.938Z,21.27
2022-12-06T15:27:27.027Z,21.83
2022-12-06T15:29:54.677Z,19.77
2022-12-06T15:32:24.780Z,21.13
2022-12-06T15:34:51.633Z,21.43
2022-12-06T15:40:06.149Z,22.80
2022-12-06T15:42:33.041Z,19.43
2022-12-06T15:44:59.926Z,20.23
2022-12-06T15:47:26.756Z,20.47
2022-12-06T15:49:54.280Z,19.60
2022-12-06T15:52:23.466Z,22.73
2022-12-06T15:54:50.742Z,19.17
2022-12-06T15:57:17.862Z,21.80
2022-12-06T15:59:44.752Z,21.23
2022-12-06T16:02:18.717Z,20.80
2022-12-06T16:04:48.380Z,19.83
2022-12-06T16:07:18.686Z,21.03
2022-12-06T16:09:46.919Z,18.40
2022-12-06T16:12:13.750Z,17.33
2022-12-06T16:14:40.505Z,17.83
2022-12-06T16:17:07.406Z,18.40
2022-12-06T16:19:52.685Z,19.23
2022-12-06T16:22:39.419Z,19.60
2022-12-06T16:25:06.609Z,20.17
2022-12-06T16:27:33.445Z,21.73
2022-12-06T16:30:00.243Z,26.13
2022-12-06T16:32:27.251Z,20.63
2022-12-06T16:34:54.006Z,28.80
2022-12-06T16:37:20.816Z,23.87
2022-12-06T16:39:47.680Z,18.73
2022-12-06T16:42:14.456Z,17.87
2022-12-06T16:44:51.198Z,16.43
2022-12-06T16:47:18.524Z,16.63
2022-12-06T16:49:47.393Z,19.87
2022-12-06T16:52:16.691Z,19.20
2022-12-06T16:54:43.814Z,18.83
2022-12-06T16:57:14.550Z,20.27
2022-12-06T16:59:42.467Z,21.53
2022-12-06T17:02:28.934Z,19.70
2022-12-06T17:05:01.470Z,18.77
2022-12-06T17:07:29.043Z,21.50
2022-12-06T17:09:55.860Z,20.37
2022-12-06T17:12:23.267Z,25.53
2022-12-06T17:14:50.447Z,21.87
2022-12-06T17:17:21.393Z,23.50
2022-12-06T17:19:49.131Z,24.03
2022-12-06T17:22:17.214Z,22.17
2022-12-06T17:24:44.719Z,23.47
2022-12-06T17:27:14.640Z,20.80
2022-12-06T17:29:43.391Z,21.80
2022-12-06T17:32:11.405Z,18.83
2022-12-06T17:34:38.274Z,23.20
2022-12-06T17:37:06.096Z,26.03
2022-12-06T17:39:33.032Z,25.10
2022-12-06T17:42:18.259Z,28.10
2022-12-06T17:44:45.172Z,32.10
2022-12-06T17:47:12.279Z,32.40
2022-12-06T17:49:39.309Z,34.87
2022-12-06T17:52:06.585Z,37.87
2022-12-06T17:54:34.253Z,35.43
2022-12-06T17:57:01.132Z,39.80
2022-12-06T17:59:31.962Z,35.53
2022-12-06T18:02:17.028Z,38.23
2022-12-06T18:04:46.112Z,33.57
2022-12-06T18:07:14.132Z,34.73
2022-12-06T18:09:41.234Z,40.27
2022-12-06T18:12:10.043Z,33.77
2022-12-06T18:14:36.934Z,38.53
2022-12-06T18:17:04.784Z,37.63
2022-12-06T18:19:32.307Z,40.80
2022-12-06T18:21:59.141Z,40.17
2022-12-06T18:24:31.787Z,38.67
2022-12-06T18:27:01.075Z,36.33
2022-12-06T18:29:28.158Z,34.40
2022-12-06T18:31:55.183Z,35.07
2022-12-06T18:34:22.305Z,33.20
2022-12-06T18:36:49.119Z,33.33
2022-12-06T18:39:24.821Z,31.47
2022-12-06T18:41:53.709Z,29.90
2022-12-06T18:44:21.349Z,32.90
2022-12-06T18:46:48.282Z,29.23
2022-12-06T18:49:15.200Z,28.27
2022-12-06T18:51:42.465Z,27.60
2022-12-06T18:54:10.747Z,32.07
2022-12-06T18:56:37.606Z,27.07
2022-12-06T18:59:07.466Z,28.23
2022-12-06T19:01:38.671Z,28.37
2022-12-06T19:04:08.620Z,32.30
2022-12-06T19:06:38.203Z,29.00
2022-12-06T19:09:11.465Z,30.10
2022-12-06T19:11:40.411Z,29.63
2022-12-06T19:14:07.749Z,27.17
2022-12-06T19:16:44.346Z,32.03
2022-12-06T19:19:16.904Z,31.03
2022-12-06T19:21:48.495Z,31.60
2022-12-06T19:24:21.378Z,28.07
2022-12-06T19:26:50.734Z,32.70
2022-12-06T19:29:17.859Z,34.13
2022-12-06T19:31:45.336Z,34.07
2022-12-06T19:34:26.416Z,35.27
2022-12-06T19:36:54.991Z,32.53
2022-12-06T19:39:21.861Z,37.13
2022-12-06T19:42:07.593Z,41.70
2022-12-06T19:44:35.009Z,31.20
2022-12-06T19:47:02.651Z,33.50
2022-12-06T19:49:29.644Z,37.80
2022-12-06T19:51:56.427Z,33.27
2022-12-06T19:54:29.875Z,33.13
2022-12-06T19:57:00.115Z,34.80
2022-12-06T19:59:31.217Z,29.53
2022-12-06T20:01:58.846Z,31.60
2022-12-06T20:04:32.964Z,32.87
2022-12-06T20:07:00.273Z,29.00
2022-12-06T20:09:30.691Z,48.20
2022-12-06T20:12:01.425Z,33.00
2022-12-06T20:14:44.576Z,34.97
2022-12-06T20:17:22.703Z,32.73
2022-12-06T20:19:49.792Z,28.57
2022-12-06T20:22:18.660Z,28.60
2022-12-06T20:24:46.311Z,28.33
2022-12-06T20:27:13.143Z,30.80
2022-12-06T20:29:40.245Z,28.13
2022-12-06T20:32:07.184Z,34.67
2022-12-06T20:34:34.907Z,37.57
2022-12-06T20:37:05.006Z,33.97
2022-12-06T20:39:35.848Z,33.47
2022-12-06T20:42:05.473Z,38.63
2022-12-06T20:44:33.166Z,40.50
2022-12-06T20:47:00.300Z,33.53
2022-12-06T20:49:27.355Z,35.37
2022-12-06T20:51:54.199Z,39.23
2022-12-06T20:54:21.999Z,36.33
2022-12-06T20:56:51.899Z,34.60
2022-12-06T20:59:20.146Z,39.00
2022-12-06T21:01:47.711Z,39.27
2022-12-06T21:04:15.599Z,37.07
2022-12-06T21:06:42.897Z,40.40
2022-12-06T21:09:09.761Z,39.60
2022-12-06T21:11:37.495Z,34.77
2022-12-06T21:14:05.531Z,33.07
2022-12-06T21:16:34.594Z,36.33
2022-12-06T21:19:05.734Z,40.90
2022-12-06T21:21:36.793Z,31.53
2022-12-06T21:24:08.304Z,36.47
2022-12-06T21:26:36.008Z,33.97
2022-12-06T21:29:04.573Z,31.17
2022-12-06T21:31:35.707Z,36.50
2022-12-06T21:34:03.096Z,29.73
2022-12-06T21:36:30.538Z,34.90
2022-12-06T21:38:58.592Z,32.03
2022-12-06T21:41:26.027Z,29.90
2022-12-06T21:43:53.030Z,27.37
2022-12-06T21:46:23.815Z,32.13
2022-12-06T21:48:56.944Z,36.23
2022-12-06T21:51:27.668Z,32.97
2022-12-06T21:53:55.428Z,31.53
2022-12-06T21:56:26.470Z,28.60
2022-12-06T21:58:54.129Z,30.73
2022-12-06T22:01:25.341Z,32.23
2022-12-06T22:03:55.128Z,32.83
2022-12-06T22:06:22.791Z,30.73
2022-12-06T22:08:56.593Z,33.13
2022-12-06T22:11:23.480Z,35.60
2022-12-06T22:13:50.544Z,29.47
2022-12-06T22:16:17.864Z,29.20
2022-12-06T22:18:46.454Z,31.90
2022-12-06T22:21:20.086Z,31.73
2022-12-06T22:23:47.938Z,29.43
2022-12-06T22:26:19.298Z,28.80
2022-12-06T22:28:47.554Z,29.90
2022-12-06T22:31:19.647Z,30.57
2022-12-06T22:33:48.426Z,33.97
2022-12-06T22:36:16.757Z,36.00
2022-12-06T22:38:43.605Z,34.33
2022-12-06T22:41:10.761Z,33.60
2022-12-06T22:43:38.196Z,31.63
2022-12-06T22:46:09.873Z,34.10
2022-12-06T22:48:37.507Z,33.73
2022-12-06T22:51:23.466Z,30.27
2022-12-06T22:53:58.027Z,31.43
2022-12-06T22:56:26.312Z,27.93
2022-12-06T22:58:58.658Z,28.23
2022-12-06T23:01:29.232Z,27.97
2022-12-06T23:04:00.045Z,25.80
2022-12-06T23:06:27.569Z,27.33
2022-12-06T23:08:54.919Z,23.53
2022-12-06T23:11:32.332Z,23.17
2022-12-06T23:13:59.958Z,24.40
2022-12-06T23:16:30.188Z,20.13
2022-12-06T23:18:59.589Z,17.20
2022-12-06T23:21:33.354Z,21.73
2022-12-06T23:24:07.503Z,19.17
2022-12-06T23:26:39.179Z,19.03
2022-12-06T23:29:07.723Z,18.90
2022-12-06T23:31:39.064Z,21.33
2022-12-06T23:34:13.158Z,21.03
2022-12-06T23:36:40.785Z,21.20
2022-12-06T23:39:07.872Z,19.93
2022-12-06T23:41:36.124Z,27.30
2022-12-06T23:44:04.779Z,28.17
2022-12-06T23:46:37.885Z,25.53
2022-12-06T23:49:06.581Z,22.33
2022-12-06T23:51:37.044Z,26.43
2022-12-06T23:54:06.901Z,26.23
2022-12-06T23:56:37.732Z,25.20
2022-12-06T23:59:07.531Z,25.97
